Time;durP1;ratioP1;P1;durP2;ratioP2;P2;SDS_P1;SDS_P2;PMS_P1;PMS_P2;Temp;Humidity;BMP_temperature;BMP_pressure;BME280_temperature;BME280_humidity;BME280_pressure;Samples;Min_cycle;Max_cycle;Signal;HPM_P1;HPM_P2
2022/06/22 00:02:32;;;;;;;8.53;2.50;;;;;;;15.48;100.00;99305.13;1735927;82;20921;-43
2022/06/22 00:05:02;;;;;;;2.58;2.37;;;;;;;15.38;100.00;99303.50;1736196;82;20928;-43
2022/06/22 00:07:36;;;;;;;7.45;2.35;;;;;;;15.29;100.00;99308.42;1736069;82;20922;-43
2022/06/22 00:10:24;;;;;;;3.40;2.37;;;;;;;15.23;100.00;99305.21;1736127;82;21012;-43
2022/06/22 00:12:53;;;;;;;2.02;1.90;;;;;;;15.18;100.00;99292.91;1731669;82;21370;-43
2022/06/22 00:15:34;;;;;;;6.05;2.30;;;;;;;15.13;100.00;99295.38;1735619;82;20921;-43
2022/06/22 00:18:03;;;;;;;4.85;2.02;;;;;;;15.07;100.00;99300.02;1736026;82;20968;-43
2022/06/22 00:20:32;;;;;;;4.60;2.15;;;;;;;15.01;100.00;99297.77;1736097;82;21505;-43
2022/06/22 00:23:25;;;;;;;4.85;1.77;;;;;;;14.95;100.00;99302.02;1736040;82;21520;-43
2022/06/22 00:25:52;;;;;;;2.15;1.75;;;;;;;14.93;100.00;99295.57;1715113;82;21229;-43
2022/06/22 00:28:33;;;;;;;2.90;1.45;;;;;;;14.95;97.84;99302.02;1735862;82;20976;-43
2022/06/22 00:31:38;;;;;;;4.92;1.50;;;;;;;14.94;96.82;99295.95;1735968;82;21600;-43
2022/06/22 00:34:15;;;;;;;4.22;1.40;;;;;;;14.89;95.75;99294.06;1735287;82;21395;-44
2022/06/22 00:36:59;;;;;;;2.92;1.70;;;;;;;14.78;95.05;99284.71;1711522;82;20932;-44
2022/06/22 00:39:38;;;;;;;1.67;1.57;;;;;;;14.71;93.92;99289.85;1706230;84;21383;-44
2022/06/22 00:42:14;;;;;;;3.77;1.40;;;;;;;14.62;92.20;99282.89;1706440;83;20957;-44
2022/06/22 00:45:06;;;;;;;7.78;1.90;;;;;;;14.59;91.80;99281.77;1706398;84;21040;-44
2022/06/22 00:47:44;;;;;;;2.92;1.32;;;;;;;14.52;89.90;99277.78;1706569;84;20972;-43
2022/06/22 00:50:15;;;;;;;8.78;1.55;;;;;;;14.47;90.58;99271.98;1706715;84;21395;-43
2022/06/22 00:52:52;;;;;;;8.83;1.50;;;;;;;14.36;89.42;99284.27;1706648;83;21225;-44
2022/06/22 00:55:33;;;;;;;1.90;1.27;;;;;;;14.31;88.92;99284.98;1706582;84;20976;-43
2022/06/22 00:58:23;;;;;;;7.53;1.60;;;;;;;14.23;88.69;99282.77;1705583;83;21033;-43
2022/06/22 01:01:18;;;;;;;7.45;1.50;;;;;;;14.21;87.23;99282.87;1706195;83;21085;-43
2022/06/22 01:04:02;;;;;;;5.67;1.55;;;;;;;14.21;87.39;99289.83;1706734;84;20929;-43
2022/06/22 01:06:50;;;;;;;4.00;1.60;;;;;;;14.17;83.65;99280.05;1706906;83;22340;-43
2022/06/22 01:09:41;;;;;;;2.17;1.30;;;;;;;14.17;83.65;99280.05;1706475;83;20877;-43
2022/06/22 01:12:43;;;;;;;1.98;1.22;;;;;;;14.10;83.39;99278.67;1652871;86;20984;-43
2022/06/22 01:15:41;;;;;;;6.17;1.12;;;;;;;14.07;83.58;99278.39;1642904;86;21108;-43
2022/06/22 01:18:16;;;;;;;5.92;1.10;;;;;;;14.03;84.01;99269.06;1696027;83;21023;-43
2022/06/22 01:21:07;;;;;;;3.08;1.22;;;;;;;13.98;82.78;99268.43;1706516;83;21006;-44
2022/06/22 01:24:15;;;;;;;7.40;1.20;;;;;;;13.91;82.06;99258.83;1706478;83;21502;-43
2022/06/22 01:27:24;;;;;;;3.65;1.00;;;;;;;13.86;82.61;99259.50;1705836;84;21425;-43
2022/06/22 01:29:54;;;;;;;3.42;1.10;;;;;;;13.76;81.74;99256.52;1706871;83;20933;-43
2022/06/22 01:32:28;;;;;;;3.15;1.10;;;;;;;13.70;82.58;99255.54;1706576;84;20952;-43
2022/06/22 01:34:59;;;;;;;3.58;1.35;;;;;;;13.60;82.10;99251.73;1706163;83;21273;-44
2022/06/22 01:37:29;;;;;;;2.25;1.02;;;;;;;13.53;82.36;99245.16;1706571;84;21027;-43
2022/06/22 01:40:17;;;;;;;3.67;1.30;;;;;;;13.45;82.19;99239.87;1710085;83;21463;-43
2022/06/22 01:43:01;;;;;;;1.30;1.20;;;;;;;13.39;82.87;99244.05;1717465;83;20984;-44
2022/06/22 01:45:42;;;;;;;8.03;1.65;;;;;;;13.29;83.63;99240.23;1720129;83;21410;-43
2022/06/22 01:48:17;;;;;;;3.55;1.20;;;;;;;13.18;84.27;99245.48;1720083;83;22078;-42
2022/06/22 01:50:57;;;;;;;3.02;1.40;;;;;;;13.09;84.56;99245.93;1720262;83;21553;-43
2022/06/22 01:53:59;;;;;;;3.35;1.10;;;;;;;12.98;85.64;99241.69;1720139;83;21374;-43
2022/06/22 01:56:46;;;;;;;3.90;1.20;;;;;;;12.93;85.91;99238.86;1694381;84;20960;-43
2022/06/22 01:59:40;;;;;;;1.22;0.98;;;;;;;12.97;86.01;99244.77;1718608;83;20924;-43
2022/06/22 02:02:16;;;;;;;5.85;1.62;;;;;;;12.96;86.62;99243.52;1719952;83;21063;-43
2022/06/22 02:05:12;;;;;;;2.08;1.30;;;;;;;12.92;86.72;99238.48;1720080;83;20983;-43
2022/06/22 02:07:48;;;;;;;3.90;1.30;;;;;;;12.88;86.34;99234.34;1720015;83;21545;-43
2022/06/22 02:10:54;;;;;;;1.60;1.20;;;;;;;12.86;86.59;99240.08;1720240;83;20865;-43
2022/06/22 02:13:42;;;;;;;5.25;1.25;;;;;;;12.83;86.88;99240.22;1720339;83;21022;-43
2022/06/22 02:16:21;;;;;;;3.25;1.30;;;;;;;12.82;87.14;99239.84;1719594;83;21903;-43
2022/06/22 02:19:02;;;;;;;3.35;1.20;;;;;;;12.78;87.48;99247.39;1693495;83;21009;-43
2022/06/22 02:21:37;;;;;;;4.12;1.47;;;;;;;12.72;88.36;99255.45;1720181;82;21399;-43
2022/06/22 02:24:21;;;;;;;2.60;1.57;;;;;;;12.72;90.28;99251.11;1720323;83;21458;-43
2022/06/22 02:27:02;;;;;;;4.97;2.20;;;;;;;12.77;91.59;99246.53;1716425;83;21339;-43
2022/06/22 02:29:34;;;;;;;7.78;2.15;;;;;;;12.78;93.08;99247.39;1720032;83;21162;-43
2022/06/22 02:32:04;;;;;;;2.17;2.00;;;;;;;12.81;94.25;99252.44;1693428;83;21498;-43
2022/06/22 02:34:32;;;;;;;6.35;1.77;;;;;;;12.86;94.85;99242.67;1719912;83;20940;-43
2022/06/22 02:37:00;;;;;;;5.55;2.15;;;;;;;12.87;95.23;99242.20;1720103;83;21445;-43
2022/06/22 02:39:28;;;;;;;5.22;2.08;;;;;;;12.88;95.10;99238.24;1720211;83;20912;-43
2022/06/22 02:44:41;;;;;;;8.90;2.00;;;;;;;12.89;95.71;99239.92;1706721;84;20960;-43
2022/06/22 02:47:32;;;;;;;21.37;2.40;;;;;;;12.89;95.85;99236.50;1706619;82;20958;-43
2022/06/22 02:50:07;;;;;;;4.45;2.30;;;;;;;12.90;96.07;99235.11;1686419;84;20913;-43
2022/06/22 02:52:47;;;;;;;5.92;1.87;;;;;;;12.92;96.03;99233.75;1706782;84;21467;-43
2022/06/22 02:57:50;;;;;;;5.55;2.10;;;;;;;12.99;95.28;99240.77;1798562;79;22594;-42
2022/06/22 03:00:19;;;;;;;5.37;2.12;;;;;;;12.98;95.25;99245.14;1757876;81;21295;-43
2022/06/22 03:02:46;;;;;;;2.20;1.80;;;;;;;13.01;94.58;99249.33;1754419;81;21204;-43
2022/06/22 03:05:14;;;;;;;10.30;2.10;;;;;;;13.02;94.43;99249.27;1716576;82;20947;-43
2022/06/22 03:07:45;;;;;;;5.80;2.27;;;;;;;13.06;93.98;99249.98;1709200;84;20968;-43
2022/06/22 03:10:28;;;;;;;6.37;1.90;;;;;;;13.09;93.72;99247.23;1709197;84;21588;-43
2022/06/22 03:12:56;;;;;;;6.25;2.02;;;;;;;13.13;93.14;99250.50;1679664;84;21039;-43
2022/06/22 03:15:25;;;;;;;5.17;1.90;;;;;;;13.18;92.52;99245.95;1709356;83;21070;-43
2022/06/22 03:17:52;;;;;;;2.75;1.70;;;;;;;13.25;92.49;99247.77;1709091;83;20916;-43
2022/06/22 03:20:21;;;;;;;4.45;1.67;;;;;;;13.29;92.24;99248.03;1709458;83;20946;-42
2022/06/22 03:22:58;;;;;;;1.72;1.60;;;;;;;13.30;91.66;99242.73;1709095;84;20936;-43
2022/06/22 03:25:38;;;;;;;2.72;1.60;;;;;;;13.36;90.77;99247.63;1709307;83;21011;-43
2022/06/22 03:28:12;;;;;;;4.05;1.60;;;;;;;13.44;89.93;99243.39;1709207;84;21253;-42
2022/06/22 03:30:55;;;;;;;2.45;1.80;;;;;;;13.52;89.38;99243.02;1706112;84;20865;-43
2022/06/22 03:33:39;;;;;;;2.55;1.87;;;;;;;13.59;89.54;99240.95;1709321;83;20940;-43
2022/06/22 03:36:10;;;;;;;2.02;1.55;;;;;;;13.67;88.50;99246.59;1709149;84;20955;-43
2022/06/22 03:38:45;;;;;;;7.53;1.87;;;;;;;13.81;88.60;99239.39;1709298;84;21047;-43
2022/06/22 03:41:18;;;;;;;3.58;1.92;;;;;;;14.01;87.74;99238.83;1709516;84;21158;-43
2022/06/22 03:43:53;;;;;;;1.02;1.02;;;;;;;14.31;86.69;99235.53;1709067;84;21537;-43
2022/06/22 03:46:54;;;;;;;4.62;1.10;;;;;;;14.68;85.96;99237.91;1707297;84;21003;-43
2022/06/22 03:49:36;;;;;;;5.75;1.50;;;;;;;15.02;81.57;99237.35;1709270;84;20975;-43
2022/06/22 03:52:36;;;;;;;1.40;1.00;;;;;;;15.36;80.12;99231.53;1709258;84;21062;-44
2022/06/22 03:55:11;;;;;;;6.58;0.70;;;;;;;15.62;76.77;99232.61;1709231;84;21239;-43
2022/06/22 03:57:40;;;;;;;5.15;1.27;;;;;;;15.83;75.15;99231.45;1705162;84;21492;-42
2022/06/22 04:00:09;;;;;;;1.75;1.15;;;;;;;15.91;73.24;99230.09;1702208;84;20939;-42
2022/06/22 04:02:36;;;;;;;3.02;1.20;;;;;;;16.03;73.90;99228.48;1702292;84;21501;-44
2022/06/22 04:05:04;;;;;;;4.45;0.90;;;;;;;16.13;71.63;99230.55;1702402;84;20951;-42
2022/06/22 04:07:36;;;;;;;0.80;0.80;;;;;;;16.13;71.63;99227.94;1702240;83;21140;-42
2022/06/22 04:10:04;;;;;;;1.02;0.90;;;;;;;16.18;72.07;99227.19;1701793;84;21014;-44
2022/06/22 04:12:41;;;;;;;1.00;0.90;;;;;;;16.25;71.11;99231.09;1673925;84;21552;-43
2022/06/22 04:15:30;;;;;;;3.62;1.20;;;;;;;16.32;70.27;99228.49;1701904;84;20939;-43
2022/06/22 04:18:06;;;;;;;3.98;1.00;;;;;;;16.38;69.46;99227.25;1702101;84;20895;-43
2022/06/22 04:20:56;;;;;;;2.17;1.05;;;;;;;16.48;69.60;99222.30;1701875;84;21350;-43
2022/06/22 04:23:43;;;;;;;2.25;0.90;;;;;;;16.56;68.03;99221.37;1701763;84;20979;-44
2022/06/22 04:26:18;;;;;;;1.20;1.15;;;;;;;16.68;67.07;99217.59;1701777;84;20986;-43
2022/06/22 04:28:49;;;;;;;0.70;0.70;;;;;;;16.82;66.20;99221.48;1701926;84;21527;-44
2022/06/22 04:31:22;;;;;;;5.17;0.90;;;;;;;16.84;63.69;99214.38;1701855;84;20982;-44
2022/06/22 04:33:52;;;;;;;4.65;0.93;;;;;;;16.86;63.31;99216.87;1701069;83;21465;-43
2022/06/22 04:36:41;;;;;;;1.10;0.93;;;;;;;16.89;63.74;99216.67;1674391;84;20994;-43
2022/06/22 04:39:22;;;;;;;7.35;1.00;;;;;;;16.93;63.67;99203.32;1699257;83;20927;-43
2022/06/22 04:41:49;;;;;;;5.40;0.75;;;;;;;17.01;64.81;99195.47;1701722;84;20994;-43
2022/06/22 04:44:26;;;;;;;0.90;0.80;;;;;;;17.27;63.81;99204.68;1673838;84;21081;-44
2022/06/22 04:47:19;;;;;;;4.03;1.05;;;;;;;17.40;63.32;99204.25;1701902;84;21492;-42
2022/06/22 04:49:58;;;;;;;3.17;0.85;;;;;;;17.41;61.47;99195.46;1701789;84;21537;-43
2022/06/22 04:52:43;;;;;;;5.70;1.00;;;;;;;17.43;62.61;99203.19;1701108;84;20967;-43
2022/06/22 04:55:14;;;;;;;;;;;;;;;17.57;62.69;99196.57;1704536;84;20900;-44
2022/06/22 04:57:42;;;;;;;1.60;0.80;;;;;;;17.69;62.11;99196.20;1684009;84;20155;-44
2022/06/22 05:00:16;;;;;;;3.40;0.85;;;;;;;17.76;61.87;99189.60;1700851;84;21258;-44
2022/06/22 05:02:43;;;;;;;3.27;1.07;;;;;;;17.84;60.89;99194.31;1672363;85;20945;-42
2022/06/22 05:05:23;;;;;;;1.85;1.00;;;;;;;17.81;61.24;99192.77;1736138;81;20894;-42
2022/06/22 05:08:01;;;;;;;17.00;1.30;;;;;;;17.87;59.81;99193.28;1735885;82;20925;-42
2022/06/22 05:10:59;;;;;;;8.25;0.98;;;;;;;18.02;60.06;99190.92;1735987;82;20960;-42
2022/06/22 05:13:30;;;;;;;2.47;0.90;;;;;;;18.12;60.88;99202.08;1735984;82;21247;-42
2022/06/22 05:15:58;;;;;;;1.85;0.72;;;;;;;18.22;60.19;99193.47;1699654;84;20904;-42
2022/06/22 05:18:29;;;;;;;4.67;0.88;;;;;;;18.33;57.47;99194.02;1695983;83;21039;-42
2022/06/22 05:21:13;;;;;;;2.75;0.80;;;;;;;18.41;58.67;99197.38;1695955;83;20968;-44
2022/06/22 05:23:41;;;;;;;1.15;0.85;;;;;;;18.57;57.10;99197.15;1695981;84;21007;-44
2022/06/22 05:26:08;;;;;;;4.22;0.72;;;;;;;18.75;55.59;99190.19;1666443;84;21557;-43
2022/06/22 05:28:43;;;;;;;1.82;0.65;;;;;;;18.65;54.85;99186.94;1696001;84;21007;-43
2022/06/22 05:31:27;;;;;;;2.17;0.80;;;;;;;18.67;57.01;99196.84;1695935;83;20901;-43
2022/06/22 05:33:57;;;;;;;5.20;0.68;;;;;;;18.83;55.05;99194.42;1695400;83;21485;-43
2022/06/22 05:36:26;;;;;;;1.27;0.78;;;;;;;19.05;54.73;99188.92;1696002;84;21000;-43
2022/06/22 05:38:55;;;;;;;3.62;0.90;;;;;;;19.06;53.18;99194.52;1696075;84;21090;-43
2022/06/22 05:41:32;;;;;;;3.83;0.88;;;;;;;18.90;52.94;99200.03;1695807;83;21051;-43
2022/06/22 05:44:02;;;;;;;1.85;0.50;;;;;;;18.71;52.58;99191.37;1696180;84;21479;-44
2022/06/22 05:46:29;;;;;;;0.57;0.57;;;;;;;18.74;54.24;99191.14;1696021;84;20964;-43
2022/06/22 05:48:57;;;;;;;1.52;0.65;;;;;;;19.05;52.78;99191.54;1696078;84;20960;-44
2022/06/22 05:52:04;;;;;;;3.85;0.75;;;;;;;19.12;52.86;99180.98;1696037;84;21245;-43
2022/06/22 05:54:38;;;;;;;2.45;0.90;;;;;;;19.15;52.57;99182.05;1696000;83;20979;-44
2022/06/22 05:57:35;;;;;;;1.55;0.90;;;;;;;19.21;53.11;99178.97;1698867;83;21554;-43
2022/06/22 06:00:20;;;;;;;4.53;1.05;;;;;;;19.33;53.28;99173.27;1711273;83;20991;-43
2022/06/22 06:03:07;;;;;;;4.77;0.70;;;;;;;19.58;53.52;99167.94;1701682;84;21566;-43
2022/06/22 06:05:41;;;;;;;3.42;0.90;;;;;;;19.90;52.39;99173.82;1711209;82;21240;-43
2022/06/22 06:08:25;;;;;;;6.37;1.20;;;;;;;20.01;51.98;99160.70;1701418;84;21368;-43
2022/06/22 06:10:52;;;;;;;2.33;0.80;;;;;;;19.96;52.09;99164.17;1711258;83;20916;-43
2022/06/22 06:13:39;;;;;;;7.80;0.82;;;;;;;19.74;51.63;99155.80;1682577;85;20963;-43
2022/06/22 06:16:26;;;;;;;0.55;0.55;;;;;;;19.64;52.13;99154.36;1700571;84;21526;-43
2022/06/22 06:18:59;;;;;;;2.62;0.70;;;;;;;19.45;51.95;99161.02;1711162;83;21254;-43
2022/06/22 06:21:30;;;;;;;5.37;0.80;;;;;;;19.20;52.15;99154.19;1701457;84;20955;-43
2022/06/22 06:24:06;;;;;;;4.50;0.70;;;;;;;18.88;51.68;99150.35;1711087;83;20987;-43
2022/06/22 06:30:20;;;;;;;3.33;0.70;;;;;;;18.53;53.63;99145.89;1667054;85;21098;-43
2022/06/22 06:33:03;;;;;;;4.28;0.85;;;;;;;18.45;54.04;99146.47;1711113;82;21255;-43
2022/06/22 06:35:44;;;;;;;2.40;0.80;;;;;;;18.34;55.16;99141.16;1682582;85;20868;-43
2022/06/22 06:38:40;;;;;;;3.40;0.80;;;;;;;18.31;53.72;99140.88;1701461;84;20967;-43
2022/06/22 06:41:23;;;;;;;3.70;0.80;;;;;;;18.31;56.05;99141.38;1711175;82;20936;-43
2022/06/22 06:44:07;;;;;;;2.70;1.00;;;;;;;18.34;55.24;99140.69;1701605;83;21011;-43
2022/06/22 06:46:39;;;;;;;5.83;1.10;;;;;;;18.21;53.46;99139.88;1659083;85;22226;-50
2022/06/22 06:49:23;;;;;;;7.00;1.72;;;;;;;18.07;55.06;99150.03;1710329;82;20928;-43
2022/06/22 06:52:08;;;;;;;18.17;2.35;;;;;;;18.03;53.91;99157.25;1711178;83;20912;-42
2022/06/22 06:54:44;;;;;;;18.73;1.52;;;;;;;17.89;54.29;99156.05;1664868;84;21000;-43
2022/06/22 06:57:17;;;;;;;9.60;1.55;;;;;;;17.72;54.59;99151.51;1715207;83;21426;-42
2022/06/22 06:59:47;;;;;;;8.30;1.50;;;;;;;17.64;55.32;99151.21;1692677;84;22175;-43
2022/06/22 07:02:35;;;;;;;6.00;1.55;;;;;;;17.62;55.58;99143.94;1692592;84;20959;-43
2022/06/22 07:05:06;;;;;;;13.43;2.02;;;;;;;17.59;55.40;99144.98;1692691;84;21409;-43
2022/06/22 07:07:57;;;;;;;14.35;1.72;;;;;;;17.41;55.79;99147.08;1667165;84;21448;-43
2022/06/22 07:10:50;;;;;;;16.32;1.85;;;;;;;17.27;56.29;99149.77;1692850;84;20963;-43
2022/06/22 07:13:31;;;;;;;6.55;2.10;;;;;;;17.15;57.51;99143.59;1721494;82;21209;-43
2022/06/22 07:16:05;;;;;;;9.53;1.47;;;;;;;17.05;58.24;99147.27;1721495;82;20982;-42
2022/06/22 07:18:39;;;;;;;1.17;1.07;;;;;;;17.04;59.31;99148.22;1690169;84;20966;-42
2022/06/22 07:21:24;;;;;;;2.20;1.05;;;;;;;16.98;60.13;99153.41;1721527;83;20998;-43
2022/06/22 07:23:59;;;;;;;4.20;1.10;;;;;;;16.91;60.70;99154.23;1692699;84;20963;-43
2022/06/22 07:26:35;;;;;;;22.35;1.30;;;;;;;16.90;61.23;99153.88;1721536;82;21115;-43
2022/06/22 07:29:09;;;;;;;7.10;1.32;;;;;;;16.84;61.46;99158.66;1692791;84;20899;-43
2022/06/22 07:31:41;;;;;;;3.85;1.20;;;;;;;16.68;62.15;99166.20;1696582;83;21003;-43
2022/06/22 07:34:29;;;;;;;3.60;1.27;;;;;;;16.57;62.91;99173.87;1692706;84;20911;-41
2022/06/22 07:37:00;;;;;;;10.35;1.27;;;;;;;16.47;61.12;99167.08;1691286;84;21034;-41
2022/06/22 07:39:35;;;;;;;3.45;1.17;;;;;;;16.38;62.38;99164.58;1692795;83;21761;-41
2022/06/22 07:42:03;;;;;;;2.70;1.10;;;;;;;16.38;62.00;99175.88;1692337;84;20868;-41
2022/06/22 07:44:32;;;;;;;20.25;1.85;;;;;;;16.36;62.29;99171.22;1692916;84;20868;-43
2022/06/22 07:47:24;;;;;;;1.27;1.17;;;;;;;16.33;63.15;99174.03;1692938;84;20904;-44
2022/06/22 07:50:21;;;;;;;6.10;1.50;;;;;;;16.36;63.01;99167.30;1721252;83;20970;-43
2022/06/22 07:52:53;;;;;;;18.85;1.82;;;;;;;16.36;63.19;99170.37;1703398;84;21321;-43
2022/06/22 07:56:04;;;;;;;4.85;1.07;;;;;;;16.15;68.83;99177.30;1703580;84;21062;-44
2022/06/22 07:58:51;;;;;;;3.67;1.40;;;;;;;16.08;70.90;99180.78;1721688;82;20877;-43
2022/06/22 08:01:31;;;;;;;2.45;1.47;;;;;;;15.94;69.17;99180.77;1692882;84;20943;-42
2022/06/22 08:04:05;;;;;;;5.35;1.30;;;;;;;15.71;70.86;99187.36;1721614;83;20989;-43
2022/06/22 08:06:38;;;;;;;2.08;1.15;;;;;;;15.53;71.29;99186.22;1692903;84;21300;-43
2022/06/22 08:09:22;;;;;;;5.42;1.67;;;;;;;15.39;71.68;99194.86;1692752;84;21034;-43
2022/06/22 08:12:09;;;;;;;6.78;1.40;;;;;;;15.21;72.31;99194.16;1692947;84;20911;-42
2022/06/22 08:14:43;;;;;;;8.05;1.47;;;;;;;15.09;74.20;99200.92;1692752;84;21492;-43
2022/06/22 08:17:27;;;;;;;1.87;1.47;;;;;;;15.01;73.75;99205.26;1692639;84;20908;-43
2022/06/22 08:19:54;;;;;;;12.98;2.00;;;;;;;14.96;76.68;99213.80;1692714;84;21257;-43
2022/06/22 08:22:21;;;;;;;7.53;1.80;;;;;;;14.80;78.07;99213.35;1721635;82;21181;-44
2022/06/22 08:24:50;;;;;;;7.83;1.80;;;;;;;14.63;78.94;99215.56;1692863;84;21398;-44
2022/06/22 08:27:18;;;;;;;8.25;1.60;;;;;;;14.49;79.95;99220.67;1692787;84;20998;-44
2022/06/22 08:29:47;;;;;;;2.98;1.70;;;;;;;14.40;81.95;99215.53;1692893;83;20990;-45
2022/06/22 08:32:25;;;;;;;9.53;1.50;;;;;;;14.36;82.96;99214.84;1721599;83;21067;-44
2022/06/22 08:34:54;;;;;;;3.17;2.20;;;;;;;14.33;83.76;99216.31;1721537;83;20888;-44
2022/06/22 08:37:38;;;;;;;2.62;2.40;;;;;;;14.36;83.85;99213.98;1692818;84;20986;-44
2022/06/22 08:40:29;;;;;;;7.90;3.15;;;;;;;14.33;83.29;99222.82;1670376;85;20957;-44
2022/06/22 08:43:14;;;;;;;6.15;3.85;;;;;;;14.21;84.45;99219.55;1698497;84;20912;-43
2022/06/22 08:46:15;;;;;;;12.10;4.28;;;;;;;14.14;83.71;99222.11;1698630;84;21403;-43
2022/06/22 08:48:57;;;;;;;6.10;3.12;;;;;;;14.08;84.67;99217.62;1683559;84;20909;-43
2022/06/22 08:51:47;;;;;;;4.37;2.60;;;;;;;14.05;86.22;99222.98;1698483;83;21486;-43
2022/06/22 08:54:28;;;;;;;4.45;3.08;;;;;;;14.02;85.80;99227.05;1698608;84;21047;-43
2022/06/22 08:57:22;;;;;;;4.85;3.27;;;;;;;13.97;85.68;99217.33;1698633;84;20960;-43
2022/06/22 09:00:23;;;;;;;5.50;3.40;;;;;;;14.03;86.27;99220.93;1665941;84;21203;-43
2022/06/22 09:03:38;;;;;;;6.83;2.80;;;;;;;14.15;87.22;99222.49;1698422;84;20957;-43
2022/06/22 09:06:23;;;;;;;5.08;2.30;;;;;;;14.41;88.67;99216.35;1698525;84;20960;-42
2022/06/22 09:09:27;;;;;;;3.45;2.20;;;;;;;14.74;83.91;99210.23;1698473;84;21533;-42
2022/06/22 09:12:05;;;;;;;3.00;1.50;;;;;;;14.80;80.47;99204.71;1698592;84;20983;-43
2022/06/22 09:15:08;;;;;;;4.97;1.45;;;;;;;15.00;79.66;99205.33;1698457;83;21326;-42
2022/06/22 09:18:02;;;;;;;1.07;0.90;;;;;;;15.15;79.33;99201.01;1698696;84;21532;-43
2022/06/22 09:20:56;;;;;;;2.00;0.80;;;;;;;15.58;79.14;99197.69;1698585;84;21047;-43
2022/06/22 09:23:43;;;;;;;2.62;0.90;;;;;;;15.76;75.76;99193.14;1698129;84;20964;-43
2022/06/22 09:26:43;;;;;;;0.88;0.80;;;;;;;15.96;76.88;99195.87;1697616;84;21523;-43
2022/06/22 09:29:47;;;;;;;1.98;0.90;;;;;;;16.28;76.76;99196.13;1696963;84;21310;-43
2022/06/22 09:32:22;;;;;;;1.40;0.70;;;;;;;16.63;76.88;99186.08;1698528;84;20905;-43
2022/06/22 09:35:14;;;;;;;3.65;1.12;;;;;;;16.96;74.72;99187.92;1698419;84;20944;-43
2022/06/22 09:38:06;;;;;;;2.25;0.60;;;;;;;17.05;72.80;99185.18;1698521;84;20920;-43
2022/06/22 09:41:02;;;;;;;4.83;0.80;;;;;;;17.09;73.05;99189.30;1698475;84;20964;-43
2022/06/22 09:43:37;;;;;;;1.85;0.90;;;;;;;17.15;72.67;99191.50;1698580;84;21258;-43
2022/06/22 09:46:50;;;;;;;2.98;0.60;;;;;;;17.15;72.48;99190.64;1696968;84;20925;-43
2022/06/22 09:49:58;;;;;;;2.58;0.78;;;;;;;17.13;72.75;99192.07;1698501;84;20968;-43
2022/06/22 09:52:49;;;;;;;3.60;0.82;;;;;;;17.22;72.38;99188.83;1698516;84;20992;-43
2022/06/22 09:58:49;;;;;;;1.30;0.70;;;;;;;17.97;73.95;99181.22;1691099;84;21261;-42
2022/06/22 10:01:57;;;;;;;1.17;0.70;;;;;;;18.48;69.96;99175.52;1680989;85;21005;-42
2022/06/22 10:05:23;;;;;;;6.42;0.90;;;;;;;18.63;67.76;99178.36;1680962;85;21012;-42
2022/06/22 10:08:30;;;;;;;4.35;0.90;;;;;;;18.73;68.30;99173.75;1681035;85;21017;-42
2022/06/22 10:11:30;;;;;;;4.92;1.00;;;;;;;18.74;65.77;99168.86;1681210;85;20960;-42
2022/06/22 10:14:29;;;;;;;0.70;0.70;;;;;;;18.69;66.97;99165.75;1680880;85;21164;-42
2022/06/22 10:17:40;;;;;;;4.28;0.78;;;;;;;18.60;66.63;99172.49;1679762;85;20933;-42
2022/06/22 10:20:36;;;;;;;2.47;1.00;;;;;;;18.49;66.26;99168.88;1603870;88;21519;-42
2022/06/22 10:23:26;;;;;;;2.87;0.68;;;;;;;18.53;67.12;99164.23;1735807;81;20894;-42
2022/06/22 10:26:13;;;;;;;1.10;0.85;;;;;;;18.55;67.76;99168.88;1736093;81;21009;-43
2022/06/22 10:29:08;;;;;;;1.02;0.78;;;;;;;18.51;66.57;99163.50;1736008;81;22073;-42
2022/06/22 10:32:03;;;;;;;1.17;0.80;;;;;;;18.37;66.65;99176.28;1662915;84;20905;-42
2022/06/22 10:35:00;;;;;;;4.58;1.00;;;;;;;18.08;67.27;99170.03;1696007;84;20944;-42
2022/06/22 10:37:35;;;;;;;;;;;;;;;17.78;70.14;99173.33;1698551;84;21024;-42
2022/06/22 10:46:45;;;;;;;0.60;0.60;;;;;;;17.20;70.02;99168.98;1696114;84;21027;-42
2022/06/22 10:49:38;;;;;;;6.17;0.90;;;;;;;16.91;71.70;99166.00;1695851;83;20928;-43
2022/06/22 10:52:43;;;;;;;0.80;0.65;;;;;;;16.77;73.14;99168.20;1683592;84;21465;-43
2022/06/22 10:55:18;;;;;;;0.80;0.80;;;;;;;16.50;73.92;99176.02;1694180;84;20944;-43
2022/06/22 10:58:11;;;;;;;3.67;1.42;;;;;;;16.09;76.60;99173.32;1695944;83;21079;-43
2022/06/22 11:00:52;;;;;;;3.42;0.98;;;;;;;15.83;78.27;99183.18;1695917;84;21604;-43
2022/06/22 11:03:57;;;;;;;3.12;1.40;;;;;;;15.64;81.16;99182.97;1695989;83;20967;-44
2022/06/22 11:06:50;;;;;;;3.72;1.15;;;;;;;15.59;83.45;99186.33;1696023;83;20960;-44
2022/06/22 11:09:46;;;;;;;2.45;1.10;;;;;;;15.62;84.36;99196.58;1695896;84;20957;-43
2022/06/22 11:12:31;;;;;;;3.42;1.00;;;;;;;15.53;84.69;99194.04;1696036;84;22142;-42
2022/06/22 11:15:38;;;;;;;1.35;1.00;;;;;;;15.42;84.50;99193.37;1695901;84;20992;-43
2022/06/22 11:18:40;;;;;;;0.82;0.82;;;;;;;15.35;86.44;99198.09;1695255;84;20928;-42
2022/06/22 11:21:40;;;;;;;0.85;0.80;;;;;;;15.30;86.62;99198.01;1695452;84;21032;-43
2022/06/22 11:24:19;;;;;;;2.90;0.80;;;;;;;15.19;86.51;99190.81;1696072;83;21011;-44
2022/06/22 11:33:19;;;;;;;6.15;0.75;;;;;;;15.00;86.64;99177.98;1691750;84;21020;-43
2022/06/22 11:36:15;;;;;;;4.60;0.82;;;;;;;15.03;87.66;99172.58;1695986;83;21478;-43
2022/06/22 11:39:03;;;;;;;0.95;0.80;;;;;;;15.19;89.12;99172.09;1696135;84;20881;-44
2022/06/22 11:42:00;;;;;;;2.40;0.45;;;;;;;15.32;88.98;99169.60;1696009;84;20937;-43
2022/06/22 11:45:49;;;;;;;1.10;0.43;;;;;;;15.50;88.20;99168.15;1696392;84;20992;-42
2022/06/22 11:47:21;;;;;;;0.50;0.50;;;;;;;15.59;86.37;99177.20;1691810;84;20964;-44
2022/06/22 11:50:05;;;;;;;3.02;0.60;;;;;;;15.62;84.74;99178.31;1695863;83;21075;-43
2022/06/22 11:52:52;;;;;;;0.35;0.35;;;;;;;15.68;84.56;99176.64;1696081;83;21456;-44
2022/06/22 11:55:38;;;;;;;3.95;0.53;;;;;;;15.69;82.88;99179.62;1695604;84;21566;-44
2022/06/22 11:58:39;;;;;;;0.50;0.50;;;;;;;15.63;80.82;99173.47;1695895;83;21335;-44
2022/06/22 12:01:30;;;;;;;2.35;0.30;;;;;;;15.57;81.40;99181.67;1711230;83;20912;-41
2022/06/22 12:04:12;;;;;;;1.65;0.30;;;;;;;15.51;81.68;99188.91;1682292;85;20920;-44
2022/06/22 12:07:10;;;;;;;6.08;0.75;;;;;;;15.41;81.94;99190.84;1701546;84;20940;-44
2022/06/22 12:09:46;;;;;;;1.35;0.53;;;;;;;15.25;82.43;99190.45;1711310;83;21277;-43
2022/06/22 12:13:06;;;;;;;1.80;0.70;;;;;;;15.02;82.83;99191.75;1701784;84;20940;-43
2022/06/22 12:15:40;;;;;;;0.85;0.85;;;;;;;14.92;84.77;99195.38;1711298;83;20873;-43
2022/06/22 12:18:37;;;;;;;7.45;1.67;;;;;;;14.75;85.03;99200.20;1682406;85;21498;-43
2022/06/22 12:21:43;;;;;;;0.90;0.90;;;;;;;14.65;86.63;99200.69;1701585;84;20920;-43
2022/06/22 12:24:30;;;;;;;0.70;0.70;;;;;;;14.53;88.90;99201.38;1710004;82;21942;-43
2022/06/22 12:27:20;;;;;;;0.72;0.70;;;;;;;14.28;88.29;99207.92;1701744;84;21525;-43
2022/06/22 12:30:22;;;;;;;2.75;0.47;;;;;;;14.02;88.57;99223.59;1711210;83;21533;-43
2022/06/22 12:33:17;;;;;;;0.50;0.50;;;;;;;13.65;88.60;99227.63;1701517;84;20893;-44
2022/06/22 12:36:14;;;;;;;2.45;1.00;;;;;;;13.06;91.25;99220.11;1711273;83;20897;-45
2022/06/22 12:38:45;;;;;;;1.90;0.42;;;;;;;12.67;95.45;99222.38;1701482;84;21242;-43
2022/06/22 12:41:44;;;;;;;1.95;0.50;;;;;;;12.42;97.48;99227.40;1711084;83;20983;-43
2022/06/22 12:44:28;;;;;;;0.35;0.35;;;;;;;12.27;98.39;99236.28;1682699;85;20900;-43
2022/06/22 12:47:45;;;;;;;2.25;0.50;;;;;;;12.19;100.00;99230.57;1701491;84;21063;-43
2022/06/22 12:50:35;;;;;;;0.90;0.50;;;;;;;12.06;100.00;99226.38;1711336;83;20861;-44
2022/06/22 12:53:09;;;;;;;2.37;0.60;;;;;;;12.01;100.00;99230.50;1711325;83;21237;-43
2022/06/22 12:55:47;;;;;;;0.60;0.50;;;;;;;12.00;100.00;99230.52;1711197;83;20931;-43
2022/06/22 12:58:30;;;;;;;0.98;0.60;;;;;;;12.02;100.00;99228.29;1701578;84;20932;-43
2022/06/22 13:00:58;;;;;;;2.50;0.62;;;;;;;12.14;100.00;99229.94;1702974;83;20881;-43
2022/06/22 13:03:50;;;;;;;0.70;0.60;;;;;;;12.43;100.00;99227.78;1675841;84;21558;-43
2022/06/22 13:06:17;;;;;;;1.02;0.40;;;;;;;12.71;100.00;99227.36;1711188;83;21233;-44
2022/06/22 13:08:44;;;;;;;3.77;0.60;;;;;;;13.07;100.00;99238.67;1701349;84;20925;-43
2022/06/22 13:11:19;;;;;;;3.05;0.50;;;;;;;13.34;100.00;99230.45;1711101;83;20932;-43